createdAt,value
2018-07-06T00:00:45.063Z,24.8
2018-07-06T00:01:34.987Z,24.8
2018-07-06T00:02:24.840Z,24.8
2018-07-06T00:03:14.582Z,24.7
2018-07-06T00:04:05.753Z,24.7
2018-07-06T00:04:55.248Z,24.8
2018-07-06T00:05:45.881Z,24.8
2018-07-06T00:06:35.364Z,24.8
2018-07-06T00:07:25.747Z,24.8
2018-07-06T00:08:15.235Z,24.8
2018-07-06T00:09:05.299Z,24.8
2018-07-06T00:09:55.939Z,24.8
2018-07-06T00:10:46.427Z,24.8
2018-07-06T00:11:36.317Z,24.8
2018-07-06T00:12:26.865Z,24.8
2018-07-06T00:13:15.718Z,24.8
2018-07-06T00:14:05.419Z,24.8
2018-07-06T00:14:55.887Z,24.8
2018-07-06T00:15:45.810Z,24.8
2018-07-06T00:16:36.129Z,24.8
2018-07-06T00:17:26.240Z,24.8
2018-07-06T00:18:16.663Z,24.8
2018-07-06T00:19:05.801Z,24.8
2018-07-06T00:19:56.992Z,24.8
2018-07-06T00:20:47.122Z,24.8
2018-07-06T00:21:36.835Z,24.8
2018-07-06T00:22:26.866Z,24.8
2018-07-06T00:23:17.491Z,24.7
2018-07-06T00:24:07.022Z,24.8
2018-07-06T00:24:57.134Z,24.8
2018-07-06T00:25:46.276Z,24.7
2018-07-06T00:26:37.061Z,24.8
2018-07-06T00:27:25.874Z,24.7
2018-07-06T00:28:17.612Z,24.7
2018-07-06T00:29:07.403Z,24.8
2018-07-06T00:29:57.836Z,24.8
2018-07-06T00:30:47.584Z,24.8
2018-07-06T00:31:38.399Z,24.7
2018-07-06T00:32:27.890Z,24.8
2018-07-06T00:33:18.188Z,24.7
2018-07-06T00:34:08.301Z,24.7
2018-07-06T00:34:58.150Z,24.7
2018-07-06T00:35:47.904Z,24.7
2018-07-06T00:36:38.628Z,24.7
2018-07-06T00:37:27.808Z,24.7
2018-07-06T00:38:17.003Z,24.7
2018-07-06T00:39:08.537Z,24.7
2018-07-06T00:39:58.515Z,24.7
2018-07-06T00:40:49.156Z,24.7
2018-07-06T00:41:38.934Z,24.7
2018-07-06T00:42:28.476Z,24.7
2018-07-06T00:43:18.274Z,24.7
2018-07-06T00:44:07.803Z,24.8
2018-07-06T00:44:58.685Z,24.7
2018-07-06T00:45:48.837Z,24.7
2018-07-06T00:46:38.535Z,24.7
2018-07-06T00:47:28.563Z,24.7
2018-07-06T00:48:18.874Z,24.7
2018-07-06T00:49:08.478Z,24.7
2018-07-06T00:49:59.092Z,24.7
2018-07-06T00:50:49.119Z,24.7
2018-07-06T00:51:39.448Z,24.7
2018-07-06T00:52:29.592Z,24.7
2018-07-06T00:53:18.428Z,24.7
2018-07-06T00:54:08.849Z,24.7
2018-07-06T00:55:00.155Z,24.7
2018-07-06T00:55:49.048Z,24.7
2018-07-06T00:56:39.514Z,24.7
2018-07-06T00:57:28.465Z,24.7
2018-07-06T00:58:20.264Z,24.7
2018-07-06T00:59:09.202Z,24.7
2018-07-06T01:00:00.426Z,24.7
2018-07-06T01:00:50.447Z,24.7
2018-07-06T01:01:41.125Z,24.7
2018-07-06T01:02:29.163Z,24.7
2018-07-06T01:03:20.563Z,24.7
2018-07-06T01:04:10.079Z,24.7
2018-07-06T01:05:00.688Z,24.7
2018-07-06T01:05:49.375Z,24.7
2018-07-06T01:06:40.585Z,24.7
2018-07-06T01:07:30.612Z,24.7
2018-07-06T01:08:21.242Z,24.7
2018-07-06T01:09:10.753Z,24.7
2018-07-06T01:10:00.023Z,24.7
2018-07-06T01:10:50.051Z,24.7
2018-07-06T01:11:40.672Z,24.6
2018-07-06T01:12:30.786Z,24.7
2018-07-06T01:13:20.833Z,24.6
2018-07-06T01:14:10.893Z,24.7
2018-07-06T01:15:01.892Z,24.7
2018-07-06T01:15:50.823Z,24.7
2018-07-06T01:16:41.375Z,24.7
2018-07-06T01:17:30.626Z,24.7
2018-07-06T01:18:20.965Z,24.7
2018-07-06T01:19:12.167Z,24.6
2018-07-06T01:20:01.953Z,24.6
2018-07-06T01:20:51.138Z,24.7
2018-07-06T01:21:40.938Z,24.7
2018-07-06T01:22:31.545Z,24.7
2018-07-06T01:23:21.073Z,24.7
2018-07-06T01:24:10.878Z,24.7
2018-07-06T01:25:02.061Z,24.7
2018-07-06T01:25:51.862Z,24.7
2018-07-06T01:26:42.007Z,24.7
2018-07-06T01:27:32.240Z,24.6
2018-07-06T01:28:21.972Z,24.6
2018-07-06T01:29:12.471Z,24.7
2018-07-06T01:30:01.871Z,24.6
2018-07-06T01:30:51.711Z,24.6
2018-07-06T01:31:42.247Z,24.6
2018-07-06T01:32:32.331Z,24.6
2018-07-06T01:33:21.810Z,24.6
2018-07-06T01:34:11.903Z,24.7
2018-07-06T01:35:02.210Z,24.6
2018-07-06T01:35:51.822Z,24.6
2018-07-06T01:36:42.092Z,24.6
2018-07-06T01:37:33.321Z,24.6
2018-07-06T01:38:21.593Z,24.6
2018-07-06T01:39:12.576Z,24.6
2018-07-06T01:40:02.959Z,24.6
2018-07-06T01:40:53.828Z,24.6
2018-07-06T01:41:42.812Z,24.7
2018-07-06T01:42:33.355Z,24.6
2018-07-06T01:43:22.894Z,24.7
2018-07-06T01:44:13.576Z,24.6
2018-07-06T01:45:02.205Z,24.6
2018-07-06T01:45:52.789Z,24.6
2018-07-06T01:46:43.677Z,24.6
2018-07-06T01:47:32.928Z,24.6
2018-07-06T01:48:22.803Z,24.6
2018-07-06T01:49:12.318Z,24.6
2018-07-06T01:50:04.261Z,24.6
2018-07-06T01:50:53.049Z,24.6
2018-07-06T01:51:43.361Z,24.6
2018-07-06T01:52:33.538Z,24.6
2018-07-06T01:53:24.335Z,24.6
2018-07-06T01:54:13.286Z,24.6
2018-07-06T01:55:03.624Z,24.6
2018-07-06T01:55:53.102Z,24.6
2018-07-06T01:56:43.380Z,24.6
2018-07-06T01:57:34.088Z,24.6
2018-07-06T01:58:23.322Z,24.6
2018-07-06T01:59:14.132Z,24.6
2018-07-06T02:00:05.067Z,24.6
2018-07-06T02:00:54.284Z,24.6
2018-07-06T02:01:45.457Z,24.6
2018-07-06T02:02:34.633Z,24.6
2018-07-06T02:03:25.011Z,24.6
2018-07-06T02:04:15.071Z,24.6
2018-07-06T02:05:04.604Z,24.6
2018-07-06T02:05:54.973Z,24.6
2018-07-06T02:06:44.393Z,24.6
2018-07-06T02:07:34.777Z,24.6
2018-07-06T02:08:25.022Z,24.6
2018-07-06T02:09:15.166Z,24.6
2018-07-06T02:10:05.801Z,24.6
2018-07-06T02:10:55.010Z,24.6
2018-07-06T02:11:45.978Z,24.6
2018-07-06T02:12:35.248Z,24.6
2018-07-06T02:13:25.539Z,24.6
2018-07-06T02:14:15.335Z,24.6
2018-07-06T02:15:05.573Z,24.6
2018-07-06T02:15:55.978Z,24.6
2018-07-06T02:16:46.029Z,24.6
2018-07-06T02:17:35.483Z,24.6
2018-07-06T02:18:26.103Z,24.6
2018-07-06T02:19:16.494Z,24.6
2018-07-06T02:20:05.949Z,24.6
2018-07-06T02:20:56.626Z,24.6
2018-07-06T02:21:46.532Z,24.6
2018-07-06T02:22:36.123Z,24.6
2018-07-06T02:23:26.518Z,24.6
2018-07-06T02:24:16.379Z,24.6
2018-07-06T02:25:06.135Z,24.6
2018-07-06T02:25:56.484Z,24.6
2018-07-06T02:26:46.604Z,24.6
2018-07-06T02:27:36.082Z,24.6
2018-07-06T02:28:26.474Z,24.6
2018-07-06T02:29:16.484Z,24.6
2018-07-06T02:30:07.180Z,24.6
2018-07-06T02:30:56.639Z,24.6
2018-07-06T02:31:47.339Z,24.6
2018-07-06T02:32:36.816Z,24.6
2018-07-06T02:33:26.545Z,24.6
2018-07-06T02:34:17.493Z,24.6
2018-07-06T02:35:06.949Z,24.6
2018-07-06T02:35:57.050Z,24.6
2018-07-06T02:36:47.672Z,24.6
2018-07-06T02:37:37.145Z,24.6
2018-07-06T02:38:28.111Z,24.6
2018-07-06T02:39:18.093Z,24.6
2018-07-06T02:40:08.203Z,24.6
2018-07-06T02:40:57.801Z,24.6
2018-07-06T02:41:48.005Z,24.6
2018-07-06T02:42:37.290Z,24.6
2018-07-06T02:43:27.588Z,24.6
2018-07-06T02:44:18.480Z,24.6
2018-07-06T02:45:08.013Z,24.6
2018-07-06T02:45:58.630Z,24.6
2018-07-06T02:46:48.091Z,24.6
2018-07-06T02:47:38.158Z,24.6
2018-07-06T02:48:28.221Z,24.6
2018-07-06T02:49:18.662Z,24.6
2018-07-06T02:50:09.295Z,24.6
2018-07-06T02:50:58.713Z,24.6
2018-07-06T02:51:48.856Z,24.6
2018-07-06T02:52:39.200Z,24.6
2018-07-06T02:53:27.323Z,24.6
2018-07-06T02:54:17.731Z,24.6
2018-07-06T02:55:09.510Z,24.6
2018-07-06T02:55:58.637Z,24.6
2018-07-06T02:56:49.167Z,24.6
2018-07-06T02:57:37.675Z,24.6
2018-07-06T02:58:28.355Z,24.6
2018-07-06T02:59:18.351Z,24.6
2018-07-06T03:00:08.607Z,24.6
2018-07-06T03:00:59.014Z,24.6
2018-07-06T03:01:49.233Z,24.6
2018-07-06T03:02:39.580Z,24.6
2018-07-06T03:03:29.681Z,24.6
2018-07-06T03:04:18.919Z,24.6
2018-07-06T03:05:09.894Z,24.6
2018-07-06T03:05:59.317Z,24.6
2018-07-06T03:06:50.266Z,24.6
2018-07-06T03:07:40.537Z,24.6
2018-07-06T03:08:30.549Z,24.6
2018-07-06T03:09:19.597Z,24.6
2018-07-06T03:10:10.116Z,24.6
2018-07-06T03:10:59.694Z,24.5
2018-07-06T03:11:50.034Z,24.5
2018-07-06T03:12:40.605Z,24.5
2018-07-06T03:13:30.234Z,24.5
2018-07-06T03:14:21.164Z,24.6
2018-07-06T03:15:10.953Z,24.5
2018-07-06T03:16:00.779Z,24.5
2018-07-06T03:16:50.539Z,24.5
2018-07-06T03:17:40.803Z,24.5
2018-07-06T03:18:29.771Z,24.5
2018-07-06T03:19:20.066Z,24.5
2018-07-06T03:20:10.223Z,24.5
2018-07-06T03:21:01.153Z,24.5
2018-07-06T03:21:50.324Z,24.5
2018-07-06T03:22:40.392Z,24.5
2018-07-06T03:23:31.196Z,24.5
2018-07-06T03:24:21.327Z,24.5
2018-07-06T03:25:26.909Z,24.5
2018-07-06T03:26:00.605Z,24.5
2018-07-06T03:26:50.687Z,24.5
2018-07-06T03:27:40.135Z,24.5
2018-07-06T03:28:35.084Z,24.5
2018-07-06T03:29:21.389Z,24.5
2018-07-06T03:30:11.819Z,24.5
2018-07-06T03:31:02.257Z,24.5
2018-07-06T03:31:50.880Z,24.5
2018-07-06T03:32:42.237Z,24.5
2018-07-06T03:33:31.155Z,24.5
2018-07-06T03:34:20.920Z,24.5
2018-07-06T03:35:11.685Z,24.5
2018-07-06T03:36:02.150Z,24.4
2018-07-06T03:36:52.569Z,24.4
2018-07-06T03:37:41.734Z,24.5
2018-07-06T03:38:32.429Z,24.5
2018-07-06T03:39:22.444Z,24.5
2018-07-06T03:40:11.961Z,24.5
2018-07-06T03:41:01.220Z,24.5
2018-07-06T03:41:52.335Z,24.5
2018-07-06T03:42:42.127Z,24.4
2018-07-06T03:43:32.744Z,24.4
2018-07-06T03:44:21.522Z,24.5
2018-07-06T03:45:13.179Z,24.5
2018-07-06T03:46:03.226Z,24.5
2018-07-06T03:46:51.731Z,24.5
2018-07-06T03:47:42.811Z,24.5
2018-07-06T03:48:33.418Z,24.4
2018-07-06T03:49:23.727Z,24.5
2018-07-06T03:50:11.994Z,24.5
2018-07-06T03:51:02.571Z,24.5
2018-07-06T03:51:53.176Z,24.4
2018-07-06T03:52:43.301Z,24.5
2018-07-06T03:53:32.495Z,24.5
2018-07-06T03:54:23.668Z,24.5
2018-07-06T03:55:14.006Z,24.5
2018-07-06T03:56:03.768Z,24.5
2018-07-06T03:56:52.880Z,24.5
2018-07-06T03:57:42.820Z,24.5
2018-07-06T03:58:32.816Z,24.5
2018-07-06T03:59:23.732Z,24.5
2018-07-06T04:00:13.683Z,24.5
2018-07-06T04:01:04.384Z,24.5
2018-07-06T04:01:53.197Z,24.5
2018-07-06T04:02:44.017Z,24.5
2018-07-06T04:03:34.152Z,24.5
2018-07-06T04:04:23.122Z,24.5
2018-07-06T04:05:14.173Z,24.5
2018-07-06T04:06:03.802Z,24.5
2018-07-06T04:06:54.376Z,24.4
2018-07-06T04:07:44.163Z,24.5
2018-07-06T04:08:33.407Z,24.5
2018-07-06T04:09:25.747Z,24.5
2018-07-06T04:10:13.988Z,24.5
2018-07-06T04:11:04.995Z,24.5
2018-07-06T04:11:54.792Z,24.4
2018-07-06T04:12:44.815Z,24.4
2018-07-06T04:13:33.458Z,24.5
2018-07-06T04:14:24.849Z,24.5
2018-07-06T04:15:14.680Z,24.5
2018-07-06T04:16:06.453Z,24.5
2018-07-06T04:16:54.796Z,24.5
2018-07-06T04:17:44.889Z,24.5
2018-07-06T04:18:35.159Z,24.5
2018-07-06T04:19:25.010Z,24.5
2018-07-06T04:20:15.641Z,24.4
2018-07-06T04:21:05.154Z,24.4
2018-07-06T04:21:54.700Z,24.4
2018-07-06T04:22:45.652Z,24.5
2018-07-06T04:23:34.267Z,24.4
2018-07-06T04:24:25.691Z,24.4
2018-07-06T04:25:15.494Z,24.4
2018-07-06T04:26:05.258Z,24.4
2018-07-06T04:26:54.601Z,24.4
2018-07-06T04:27:45.179Z,24.4
2018-07-06T04:28:35.553Z,24.4
2018-07-06T04:29:26.407Z,24.4
2018-07-06T04:30:15.339Z,24.4
2018-07-06T04:31:05.679Z,24.4
2018-07-06T04:31:56.304Z,24.4
2018-07-06T04:32:46.114Z,24.4
2018-07-06T04:33:36.125Z,24.4
2018-07-06T04:34:26.274Z,24.4
2018-07-06T04:35:16.324Z,24.4
2018-07-06T04:36:06.080Z,24.4
2018-07-06T04:36:56.177Z,24.4
2018-07-06T04:37:46.265Z,24.4
2018-07-06T04:38:36.544Z,24.4
2018-07-06T04:39:26.622Z,24.4
2018-07-06T04:40:16.368Z,24.4
2018-07-06T04:41:07.356Z,24.4
2018-07-06T04:41:56.509Z,24.4
2018-07-06T04:42:47.182Z,24.4
2018-07-06T04:43:36.926Z,24.4
2018-07-06T04:44:27.330Z,24.4
2018-07-06T04:45:16.835Z,24.4
2018-07-06T04:46:06.887Z,24.4
2018-07-06T04:46:55.918Z,24.4
2018-07-06T04:47:47.077Z,24.4
2018-07-06T04:48:37.317Z,24.4
2018-07-06T04:49:26.978Z,24.4
2018-07-06T04:50:16.928Z,24.4
2018-07-06T04:51:08.438Z,24.4
2018-07-06T04:51:57.858Z,24.4
2018-07-06T04:52:48.025Z,24.4
2018-07-06T04:53:38.297Z,24.4
2018-07-06T04:54:27.495Z,24.4
2018-07-06T04:55:17.510Z,24.4
2018-07-06T04:56:08.150Z,24.4
2018-07-06T04:56:57.430Z,24.4
2018-07-06T04:57:47.547Z,24.4
2018-07-06T04:58:37.309Z,24.4
2018-07-06T04:59:26.232Z,24.4
2018-07-06T05:00:18.220Z,24.4
2018-07-06T05:01:07.479Z,24.4
2018-07-06T05:01:57.476Z,24.4
2018-07-06T05:02:48.804Z,24.4
2018-07-06T05:03:37.767Z,24.4
2018-07-06T05:04:28.563Z,24.4
2018-07-06T05:05:17.782Z,24.4
2018-07-06T05:06:08.212Z,24.4
2018-07-06T05:06:57.962Z,24.4
2018-07-06T05:07:48.885Z,24.4
2018-07-06T05:08:37.815Z,24.5
2018-07-06T05:09:27.940Z,24.4
2018-07-06T05:10:18.597Z,24.4
2018-07-06T05:11:08.043Z,24.4
2018-07-06T05:11:58.630Z,24.4
2018-07-06T05:12:48.466Z,24.4
2018-07-06T05:13:38.389Z,24.5
2018-07-06T05:14:28.883Z,24.4
2018-07-06T05:15:18.679Z,24.5
2018-07-06T05:16:09.479Z,24.5
2018-07-06T05:17:00.464Z,24.5
2018-07-06T05:17:49.085Z,24.5
2018-07-06T05:18:39.940Z,24.5
2018-07-06T05:19:29.989Z,24.4
2018-07-06T05:20:19.188Z,24.5
2018-07-06T05:21:09.899Z,24.5
2018-07-06T05:21:59.618Z,24.5
2018-07-06T05:22:50.528Z,24.5
2018-07-06T05:23:39.793Z,24.5
2018-07-06T05:24:30.185Z,24.5
2018-07-06T05:25:19.727Z,24.5
2018-07-06T05:26:09.970Z,24.5
2018-07-06T05:27:00.012Z,24.5
2018-07-06T05:27:50.671Z,24.5
2018-07-06T05:28:40.533Z,24.4
2018-07-06T05:29:29.350Z,24.5
2018-07-06T05:30:20.539Z,24.5
2018-07-06T05:31:10.846Z,24.5
2018-07-06T05:32:01.583Z,24.5
2018-07-06T05:32:50.521Z,24.5
2018-07-06T05:33:40.800Z,24.5
2018-07-06T05:34:31.155Z,24.5
2018-07-06T05:35:21.184Z,24.5
2018-07-06T05:36:10.445Z,24.5
2018-07-06T05:37:01.600Z,24.5
2018-07-06T05:37:51.725Z,24.5
2018-07-06T05:38:40.937Z,24.5
2018-07-06T05:39:31.244Z,24.5
2018-07-06T05:40:21.881Z,24.6
2018-07-06T05:41:10.851Z,24.5
2018-07-06T05:42:01.438Z,24.5
2018-07-06T05:42:51.790Z,24.6
2018-07-06T05:43:41.425Z,24.5
2018-07-06T05:44:31.624Z,24.5
2018-07-06T05:45:21.278Z,24.5
2018-07-06T05:46:11.502Z,24.6
2018-07-06T05:47:00.793Z,24.6
2018-07-06T05:47:51.738Z,24.5
2018-07-06T05:48:41.844Z,24.5
2018-07-06T05:49:31.383Z,24.5
2018-07-06T05:50:21.331Z,24.5
2018-07-06T05:51:12.422Z,24.6
2018-07-06T05:52:02.560Z,24.6
2018-07-06T05:52:52.733Z,24.6
2018-07-06T05:53:42.477Z,24.6
2018-07-06T05:54:31.638Z,24.6
2018-07-06T05:55:21.416Z,24.6
2018-07-06T05:56:12.390Z,24.6
2018-07-06T05:57:02.355Z,24.6
2018-07-06T05:57:52.438Z,24.6
2018-07-06T05:58:42.267Z,24.6
2018-07-06T05:59:32.855Z,24.6
2018-07-06T06:00:23.169Z,24.6
2018-07-06T06:01:12.117Z,24.6
2018-07-06T06:02:02.774Z,24.6
2018-07-06T06:02:53.659Z,24.6
2018-07-06T06:03:42.841Z,24.6
2018-07-06T06:04:33.044Z,24.6
2018-07-06T06:05:22.774Z,24.6
2018-07-06T06:06:13.881Z,24.6
2018-07-06T06:07:03.444Z,24.6
2018-07-06T06:07:52.642Z,24.6
2018-07-06T06:08:43.719Z,24.6
2018-07-06T06:09:33.415Z,24.6
2018-07-06T06:10:23.195Z,24.6
2018-07-06T06:11:13.223Z,24.6
2018-07-06T06:12:03.513Z,24.6
2018-07-06T06:12:53.118Z,24.6
2018-07-06T06:13:43.217Z,24.6
2018-07-06T06:14:33.156Z,24.6
2018-07-06T06:15:22.836Z,24.6
2018-07-06T06:16:13.289Z,24.6
2018-07-06T06:17:04.469Z,24.6
2018-07-06T06:17:54.513Z,24.6
2018-07-06T06:18:47.140Z,24.6
2018-07-06T06:19:34.091Z,24.6
2018-07-06T06:20:23.834Z,24.6
2018-07-06T06:21:13.937Z,24.6
2018-07-06T06:22:04.028Z,24.6
2018-07-06T06:22:54.941Z,24.6
2018-07-06T06:23:44.696Z,24.6
2018-07-06T06:24:34.905Z,24.6
2018-07-06T06:25:24.998Z,24.6
2018-07-06T06:26:14.893Z,24.6
2018-07-06T06:27:04.138Z,24.6
2018-07-06T06:27:55.062Z,24.6
2018-07-06T06:28:44.243Z,24.6
2018-07-06T06:29:34.922Z,24.6
2018-07-06T06:30:24.467Z,24.6
2018-07-06T06:31:14.065Z,24.6
2018-07-06T06:32:05.687Z,24.6
2018-07-06T06:32:56.685Z,24.6
2018-07-06T06:33:48.814Z,24.6
2018-07-06T06:34:36.112Z,24.6
2018-07-06T06:35:25.050Z,24.6
2018-07-06T06:36:14.890Z,24.6
2018-07-06T06:37:06.017Z,24.6
2018-07-06T06:37:54.918Z,24.6
2018-07-06T06:38:45.536Z,24.6
2018-07-06T06:39:36.782Z,24.6
2018-07-06T06:40:25.696Z,24.6
2018-07-06T06:41:16.036Z,24.6
2018-07-06T06:42:06.151Z,24.6
2018-07-06T06:42:55.875Z,24.6
2018-07-06T06:43:46.022Z,24.7
2018-07-06T06:44:36.339Z,24.7
2018-07-06T06:45:25.942Z,24.6
2018-07-06T06:46:16.444Z,24.6
2018-07-06T06:47:05.918Z,24.7
2018-07-06T06:47:56.097Z,24.7
2018-07-06T06:48:46.846Z,24.7
2018-07-06T06:49:36.133Z,24.7
2018-07-06T06:50:26.246Z,24.7
2018-07-06T06:51:16.835Z,24.7
2018-07-06T06:52:06.049Z,24.7
2018-07-06T06:52:56.688Z,24.7
2018-07-06T06:53:46.402Z,24.8
2018-07-06T06:54:37.052Z,24.7
2018-07-06T06:55:26.632Z,24.7
2018-07-06T06:56:17.005Z,24.7
2018-07-06T06:57:07.258Z,24.7
2018-07-06T06:57:56.762Z,24.8
2018-07-06T06:58:47.655Z,24.8
2018-07-06T06:59:37.728Z,24.7
2018-07-06T07:00:35.957Z,24.8
2018-07-06T07:01:17.732Z,24.8
2018-07-06T07:02:07.142Z,24.8
2018-07-06T07:02:57.545Z,24.8
2018-07-06T07:03:47.228Z,24.8
2018-07-06T07:04:37.906Z,24.8
2018-07-06T07:05:27.546Z,24.8
2018-07-06T07:06:18.105Z,24.8
2018-07-06T07:07:07.511Z,24.8
2018-07-06T07:07:58.455Z,24.8
2018-07-06T07:08:48.571Z,24.8
2018-07-06T07:09:38.127Z,24.8
2018-07-06T07:10:27.725Z,24.8
2018-07-06T07:11:17.952Z,24.8
2018-07-06T07:12:09.034Z,24.8
2018-07-06T07:12:57.992Z,24.8
2018-07-06T07:13:49.277Z,24.8
2018-07-06T07:14:37.897Z,24.8
2018-07-06T07:15:28.642Z,24.9
2018-07-06T07:16:18.119Z,24.8
2018-07-06T07:17:08.497Z,24.8
2018-07-06T07:17:58.257Z,24.9
2018-07-06T07:18:49.150Z,24.8
2018-07-06T07:19:39.231Z,24.9
2018-07-06T07:20:27.528Z,24.9
2018-07-06T07:21:17.986Z,24.9
2018-07-06T07:22:08.717Z,24.9
2018-07-06T07:22:58.546Z,24.9
2018-07-06T07:23:50.115Z,24.9
2018-07-06T07:24:38.322Z,24.9
2018-07-06T07:25:29.208Z,24.9
2018-07-06T07:26:19.080Z,24.9
2018-07-06T07:27:09.616Z,24.9
2018-07-06T07:28:00.002Z,24.9
2018-07-06T07:28:49.821Z,24.9
2018-07-06T07:29:39.605Z,24.9
2018-07-06T07:30:29.833Z,24.9
2018-07-06T07:31:20.209Z,24.9
2018-07-06T07:32:10.241Z,24.9
2018-07-06T07:33:00.614Z,24.9
2018-07-06T07:33:49.573Z,24.9
2018-07-06T07:34:39.932Z,24.9
2018-07-06T07:35:30.254Z,24.9
2018-07-06T07:36:20.532Z,24.9
2018-07-06T07:37:11.200Z,24.9
2018-07-06T07:37:59.774Z,24.9
2018-07-06T07:38:50.633Z,24.9
2018-07-06T07:39:40.909Z,24.9
2018-07-06T07:40:30.968Z,24.9
2018-07-06T07:41:21.206Z,24.9
2018-07-06T07:42:10.542Z,24.9
2018-07-06T07:43:00.620Z,24.9
2018-07-06T07:43:50.417Z,25
2018-07-06T07:44:40.483Z,25
2018-07-06T07:45:32.255Z,24.9
2018-07-06T07:46:22.452Z,25
2018-07-06T07:47:12.044Z,25
2018-07-06T07:48:01.003Z,24.9
2018-07-06T07:48:51.355Z,25
2018-07-06T07:49:41.899Z,25
2018-07-06T07:50:31.929Z,24.9
2018-07-06T07:51:21.254Z,25
2018-07-06T07:52:12.088Z,25
2018-07-06T07:53:01.094Z,25
2018-07-06T07:53:51.907Z,25
2018-07-06T07:54:43.845Z,25
2018-07-06T07:55:31.822Z,25
2018-07-06T07:56:22.391Z,25
2018-07-06T07:57:11.329Z,25
2018-07-06T07:58:02.561Z,25
2018-07-06T07:58:52.114Z,25
2018-07-06T07:59:42.197Z,25
2018-07-06T08:00:35.825Z,25
2018-07-06T08:01:27.412Z,25
2018-07-06T08:02:13.171Z,25
2018-07-06T08:03:03.292Z,25
2018-07-06T08:03:52.441Z,25
2018-07-06T08:04:42.551Z,25
2018-07-06T08:05:33.502Z,25
2018-07-06T08:06:23.244Z,25.1
2018-07-06T08:07:14.024Z,25.1
2018-07-06T08:08:03.711Z,25
2018-07-06T08:08:53.227Z,25.1
2018-07-06T08:09:42.679Z,25.1
2018-07-06T08:10:32.483Z,25
2018-07-06T08:11:23.369Z,25.1
2018-07-06T08:12:13.189Z,25.1
2018-07-06T08:13:03.683Z,25.1
2018-07-06T08:13:53.586Z,25.1
2018-07-06T08:14:44.434Z,25.1
2018-07-06T08:15:33.728Z,25.1
2018-07-06T08:16:23.971Z,25.1
2018-07-06T08:17:14.105Z,25.1
2018-07-06T08:18:04.362Z,25.1
2018-07-06T08:18:54.202Z,25.1
2018-07-06T08:19:44.549Z,25.1
2018-07-06T08:20:34.006Z,25.1
2018-07-06T08:21:24.782Z,25
2018-07-06T08:22:15.019Z,25.1
2018-07-06T08:23:04.343Z,25.1
2018-07-06T08:23:54.613Z,25.1
2018-07-06T08:24:43.835Z,25.1
2018-07-06T08:25:36.944Z,25.1
2018-07-06T08:26:24.230Z,25.1
2018-07-06T08:27:15.433Z,25
2018-07-06T08:28:04.959Z,25.1
2018-07-06T08:28:54.996Z,25.1
2018-07-06T08:29:44.757Z,25.1
2018-07-06T08:30:35.542Z,25.1
2018-07-06T08:31:25.212Z,25.1
2018-07-06T08:32:15.263Z,25.1
2018-07-06T08:33:04.027Z,25.1
2018-07-06T08:33:55.410Z,25
2018-07-06T08:34:45.457Z,25.1
2018-07-06T08:35:34.387Z,25.1
2018-07-06T08:36:25.089Z,25.1
2018-07-06T08:37:16.277Z,25.1
2018-07-06T08:38:05.380Z,25.1
2018-07-06T08:38:55.197Z,25.1
2018-07-06T08:39:46.885Z,25.1
2018-07-06T08:40:36.492Z,25.1
2018-07-06T08:41:25.688Z,25.1
2018-07-06T08:42:16.334Z,25.1
2018-07-06T08:43:06.105Z,25.1
2018-07-06T08:43:55.106Z,25.1
2018-07-06T08:44:45.710Z,25.1
2018-07-06T08:45:35.495Z,25.1
2018-07-06T08:46:24.962Z,25.1
2018-07-06T08:47:16.674Z,25.1
2018-07-06T08:48:06.245Z,25.1
2018-07-06T08:48:56.043Z,25.1
2018-07-06T08:49:46.089Z,25.1
2018-07-06T08:50:35.695Z,25.1
2018-07-06T08:51:27.096Z,25.1
2018-07-06T08:52:14.784Z,25.1
2018-07-06T08:53:06.438Z,25.1
2018-07-06T08:53:56.445Z,25.1
2018-07-06T08:54:47.493Z,25.1
2018-07-06T08:55:37.214Z,25.1
2018-07-06T08:56:26.887Z,25.1
2018-07-06T08:57:17.221Z,25.1
2018-07-06T08:58:07.292Z,25.1
2018-07-06T08:58:57.991Z,25.1
2018-07-06T08:59:47.174Z,25.1
2018-07-06T09:00:37.484Z,25.1
2018-07-06T09:01:26.425Z,25.1
2018-07-06T09:02:16.568Z,25.1
2018-07-06T09:03:07.449Z,25.1
2018-07-06T09:03:57.745Z,25.1
2018-07-06T09:04:48.357Z,25.1
2018-07-06T09:05:37.937Z,25.1
2018-07-06T09:06:27.120Z,25.1
2018-07-06T09:07:17.480Z,25.1
2018-07-06T09:08:07.598Z,25.1
2018-07-06T09:08:58.207Z,25.1
2018-07-06T09:09:48.202Z,25.1
2018-07-06T09:10:36.911Z,25.1
2018-07-06T09:11:27.809Z,25.1
2018-07-06T09:12:17.302Z,25.1
2018-07-06T09:13:10.076Z,25.1
2018-07-06T09:13:57.974Z,25.1
2018-07-06T09:14:49.177Z,25.1
2018-07-06T09:15:37.970Z,25.1
2018-07-06T09:16:28.216Z,25.1
2018-07-06T09:17:19.084Z,25.1
2018-07-06T09:18:09.233Z,25.1
2018-07-06T09:18:57.585Z,25.1
2018-07-06T09:19:54.713Z,25.1
2018-07-06T09:20:38.596Z,25.1
2018-07-06T09:21:28.530Z,25.1
2018-07-06T09:22:18.540Z,25.1
2018-07-06T09:23:08.858Z,25.1
2018-07-06T09:23:58.756Z,25.1
2018-07-06T09:24:49.285Z,25.1
2018-07-06T09:25:42.669Z,25.1
2018-07-06T09:26:30.115Z,25.1
2018-07-06T09:27:19.598Z,25.1
2018-07-06T09:28:09.077Z,25.1
2018-07-06T09:29:00.288Z,25.1
2018-07-06T09:29:50.321Z,25.1
2018-07-06T09:30:40.401Z,25.1
2018-07-06T09:31:30.336Z,25.1
2018-07-06T09:32:20.771Z,25.1
2018-07-06T09:33:09.640Z,25.1
2018-07-06T09:33:59.742Z,25.1
2018-07-06T09:34:50.201Z,25.1
2018-07-06T09:35:40.280Z,25.1
2018-07-06T09:36:30.008Z,25.1
2018-07-06T09:37:20.402Z,25.1
2018-07-06T09:38:10.705Z,25.1
2018-07-06T09:39:01.291Z,25.2
2018-07-06T09:39:50.598Z,25.1
2018-07-06T09:40:40.930Z,25.1
2018-07-06T09:41:30.703Z,25.1
2018-07-06T09:42:21.181Z,25.1
2018-07-06T09:43:10.552Z,25.2
2018-07-06T09:44:01.503Z,25.1
2018-07-06T09:44:50.502Z,25.1
2018-07-06T09:45:40.935Z,25.1
2018-07-06T09:46:31.165Z,25.1
2018-07-06T09:47:21.805Z,25.1
2018-07-06T09:48:11.290Z,25.1
2018-07-06T09:49:01.322Z,25.2
2018-07-06T09:49:51.370Z,25.2
2018-07-06T09:50:41.637Z,25.1
2018-07-06T09:51:31.234Z,25.1
2018-07-06T09:52:21.831Z,25.1
2018-07-06T09:53:12.231Z,25.1
2018-07-06T09:54:02.012Z,25.2
2018-07-06T09:54:51.525Z,25.1
2018-07-06T09:55:41.846Z,25.1
2018-07-06T09:56:31.622Z,25.2
2018-07-06T09:57:21.411Z,25.2
2018-07-06T09:58:13.418Z,25.2
2018-07-06T09:59:02.371Z,25.2
2018-07-06T09:59:52.200Z,25.1
2018-07-06T10:00:41.932Z,25.2
2018-07-06T10:01:32.561Z,25.2
2018-07-06T10:02:22.395Z,25.2
2018-07-06T10:03:11.884Z,25.1
2018-07-06T10:04:02.722Z,25.1
2018-07-06T10:04:52.615Z,25.1
2018-07-06T10:05:43.803Z,25.2
2018-07-06T10:06:32.713Z,25.2
2018-07-06T10:07:22.552Z,25.1
2018-07-06T10:08:12.640Z,25.2
2018-07-06T10:09:03.029Z,25.1
2018-07-06T10:09:53.366Z,25.1
2018-07-06T10:10:43.342Z,25.1
2018-07-06T10:11:33.206Z,25.1
2018-07-06T10:12:22.900Z,25.2
2018-07-06T10:13:12.651Z,25.2
2018-07-06T10:14:03.029Z,25.2
2018-07-06T10:14:53.612Z,25.2
2018-07-06T10:15:42.896Z,25.2
2018-07-06T10:16:32.956Z,25.2
2018-07-06T10:17:23.532Z,25.2
2018-07-06T10:18:13.590Z,25.2
2018-07-06T10:19:03.435Z,25.2
2018-07-06T10:19:52.137Z,25.2
2018-07-06T10:20:43.767Z,25.2
2018-07-06T10:21:33.887Z,25.2
2018-07-06T10:22:23.730Z,25.2
2018-07-06T10:23:14.298Z,25.2
2018-07-06T10:24:03.784Z,25.2
2018-07-06T10:24:53.359Z,25.1
2018-07-06T10:25:44.465Z,25.2
2018-07-06T10:26:33.784Z,25.2
2018-07-06T10:27:24.417Z,25.2
2018-07-06T10:28:14.417Z,25.1
2018-07-06T10:29:04.735Z,25.2
2018-07-06T10:29:54.257Z,25.2
2018-07-06T10:30:44.671Z,25.2
2018-07-06T10:31:34.189Z,25.3
2018-07-06T10:32:25.042Z,25.3
2018-07-06T10:33:16.215Z,25.2
2018-07-06T10:34:06.303Z,25.3
2018-07-06T10:34:54.436Z,25.3
2018-07-06T10:35:45.519Z,25.2
2018-07-06T10:36:34.812Z,25.3
2018-07-06T10:37:25.373Z,25.2
2018-07-06T10:38:15.443Z,25.2
2018-07-06T10:39:05.184Z,25.2
2018-07-06T10:39:59.330Z,25.2
2018-07-06T10:40:44.853Z,25.2
2018-07-06T10:41:35.926Z,25.2
2018-07-06T10:42:25.479Z,25.2
2018-07-06T10:43:16.068Z,25.2
2018-07-06T10:44:06.161Z,25.2
2018-07-06T10:44:55.971Z,25.2
2018-07-06T10:45:46.008Z,25.2
2018-07-06T10:46:35.290Z,25.3
2018-07-06T10:47:25.385Z,25.2
2018-07-06T10:48:15.367Z,25.3
2018-07-06T10:49:06.545Z,25.2
2018-07-06T10:49:56.132Z,25.3
2018-07-06T10:50:46.228Z,25.3
2018-07-06T10:51:36.542Z,25.2
2018-07-06T10:52:26.585Z,25.2
2018-07-06T10:53:15.777Z,25.3
2018-07-06T10:54:06.387Z,25.2
2018-07-06T10:54:57.078Z,25.3
2018-07-06T10:55:46.563Z,25.2
2018-07-06T10:56:36.600Z,25.2
2018-07-06T10:57:26.943Z,25.2
2018-07-06T10:58:16.776Z,25.3
2018-07-06T10:59:06.227Z,25.3
2018-07-06T10:59:57.456Z,25.3
2018-07-06T11:00:46.105Z,25.3
2018-07-06T11:01:36.801Z,25.2
2018-07-06T11:02:26.843Z,25.3
2018-07-06T11:03:16.885Z,25.3
2018-07-06T11:04:07.475Z,25.2
2018-07-06T11:04:58.033Z,25.3
2018-07-06T11:05:46.572Z,25.3
2018-07-06T11:06:37.641Z,25.3
2018-07-06T11:07:27.741Z,25.2
2018-07-06T11:08:17.527Z,25.3